sensor_id;sensor_type;location;lat;lon;timestamp;pressure;altitude;pressure_sealevel;temperature;humidity
16821;BME280;8527;49.740;6.604;2022-07-12T00:00:17;100505.06;;;17.96;76.77
16821;BME280;8527;49.740;6.604;2022-07-12T00:05:16;100507.28;;;17.85;77.99
16821;BME280;8527;49.740;6.604;2022-07-12T00:10:14;100499.78;;;17.74;76.01
16821;BME280;8527;49.740;6.604;2022-07-12T00:15:21;100494.56;;;17.66;77.78
16821;BME280;8527;49.740;6.604;2022-07-12T00:20:20;100503.00;;;17.63;77.82
16821;BME280;8527;49.740;6.604;2022-07-12T00:25:18;100493.84;;;17.22;77.36
16821;BME280;8527;49.740;6.604;2022-07-12T00:30:17;100497.00;;;17.32;78.64
16821;BME280;8527;49.740;6.604;2022-07-12T00:35:22;100499.00;;;17.23;79.88
16821;BME280;8527;49.740;6.604;2022-07-12T00:40:23;100494.47;;;17.24;78.40
16821;BME280;8527;49.740;6.604;2022-07-12T00:45:21;100490.03;;;17.09;80.16
16821;BME280;8527;49.740;6.604;2022-07-12T00:50:23;100489.16;;;17.02;81.29
16821;BME280;8527;49.740;6.604;2022-07-12T00:55:22;100495.38;;;17.09;80.40
16821;BME280;8527;49.740;6.604;2022-07-12T01:00:23;100492.94;;;16.93;80.79
16821;BME280;8527;49.740;6.604;2022-07-12T01:05:26;100498.13;;;16.94;79.58
16821;BME280;8527;49.740;6.604;2022-07-12T01:10:26;100490.47;;;16.69;83.54
16821;BME280;8527;49.740;6.604;2022-07-12T01:15:26;100493.00;;;16.78;82.25
16821;BME280;8527;49.740;6.604;2022-07-12T01:20:29;100505.13;;;16.73;82.65
16821;BME280;8527;49.740;6.604;2022-07-12T01:25:36;100493.31;;;16.68;81.43
16821;BME280;8527;49.740;6.604;2022-07-12T01:30:35;100479.72;;;16.48;82.71
16821;BME280;8527;49.740;6.604;2022-07-12T01:35:33;100489.59;;;16.47;83.29
16821;BME280;8527;49.740;6.604;2022-07-12T01:40:37;100479.22;;;16.22;85.00
16821;BME280;8527;49.740;6.604;2022-07-12T01:45:36;100481.88;;;16.37;83.48
16821;BME280;8527;49.740;6.604;2022-07-12T01:50:36;100488.69;;;16.40;84.31
16821;BME280;8527;49.740;6.604;2022-07-12T01:55:41;100478.28;;;16.30;82.59
16821;BME280;8527;49.740;6.604;2022-07-12T02:00:39;100482.66;;;16.16;85.08
16821;BME280;8527;49.740;6.604;2022-07-12T02:05:42;100480.38;;;16.13;84.45
16821;BME280;8527;49.740;6.604;2022-07-12T02:10:44;100491.72;;;16.00;85.95
16821;BME280;8527;49.740;6.604;2022-07-12T02:15:49;100489.84;;;15.85;86.25
16821;BME280;8527;49.740;6.604;2022-07-12T02:20:48;100488.47;;;15.89;84.29
16821;BME280;8527;49.740;6.604;2022-07-12T02:25:49;100493.06;;;15.81;85.32
16821;BME280;8527;49.740;6.604;2022-07-12T02:30:47;100485.97;;;15.88;86.69
16821;BME280;8527;49.740;6.604;2022-07-12T02:35:48;100507.75;;;15.70;86.41
16821;BME280;8527;49.740;6.604;2022-07-12T02:40:49;100503.41;;;15.69;85.03
16821;BME280;8527;49.740;6.604;2022-07-12T02:45:54;100506.75;;;15.71;87.61
16821;BME280;8527;49.740;6.604;2022-07-12T02:50:56;100499.19;;;15.74;86.29
16821;BME280;8527;49.740;6.604;2022-07-12T02:56:04;100514.75;;;15.56;85.18
16821;BME280;8527;49.740;6.604;2022-07-12T03:01:03;100520.34;;;15.46;86.22
16821;BME280;8527;49.740;6.604;2022-07-12T03:06:02;100519.72;;;15.44;85.31
16821;BME280;8527;49.740;6.604;2022-07-12T03:11:12;100516.47;;;15.33;85.83
16821;BME280;8527;49.740;6.604;2022-07-12T03:16:11;100518.19;;;15.26;85.39
16821;BME280;8527;49.740;6.604;2022-07-12T03:21:09;100528.13;;;15.17;86.33
16821;BME280;8527;49.740;6.604;2022-07-12T03:26:12;100521.22;;;15.23;87.61
16821;BME280;8527;49.740;6.604;2022-07-12T03:31:11;100520.84;;;15.26;87.50
16821;BME280;8527;49.740;6.604;2022-07-12T03:36:09;100522.22;;;15.22;87.69
16821;BME280;8527;49.740;6.604;2022-07-12T03:41:11;100530.31;;;15.14;88.62
16821;BME280;8527;49.740;6.604;2022-07-12T03:46:12;100521.16;;;15.08;89.59
16821;BME280;8527;49.740;6.604;2022-07-12T03:51:16;100530.94;;;15.01;88.00
16821;BME280;8527;49.740;6.604;2022-07-12T03:56:17;100531.44;;;14.96;93.60
16821;BME280;8527;49.740;6.604;2022-07-12T04:01:29;100528.72;;;15.04;91.21
16821;BME280;8527;49.740;6.604;2022-07-12T04:06:30;100520.88;;;15.03;91.92
16821;BME280;8527;49.740;6.604;2022-07-12T04:11:31;100518.06;;;15.19;89.64
16821;BME280;8527;49.740;6.604;2022-07-12T04:16:30;100520.75;;;15.19;88.20
16821;BME280;8527;49.740;6.604;2022-07-12T04:21:28;100526.31;;;15.33;88.48
16821;BME280;8527;49.740;6.604;2022-07-12T04:26:27;100526.88;;;15.43;89.38
16821;BME280;8527;49.740;6.604;2022-07-12T04:31:28;100521.66;;;15.65;88.39
16821;BME280;8527;49.740;6.604;2022-07-12T04:36:27;100529.88;;;15.64;88.23
16821;BME280;8527;49.740;6.604;2022-07-12T04:41:26;100530.50;;;15.66;88.28
16821;BME280;8527;49.740;6.604;2022-07-12T04:46:30;100533.75;;;15.76;87.46
16821;BME280;8527;49.740;6.604;2022-07-12T04:51:29;100542.31;;;15.71;88.90
16821;BME280;8527;49.740;6.604;2022-07-12T04:56:30;100546.50;;;15.89;88.47
16821;BME280;8527;49.740;6.604;2022-07-12T05:01:32;100556.03;;;15.92;87.99
16821;BME280;8527;49.740;6.604;2022-07-12T05:06:33;100562.38;;;15.75;91.22
16821;BME280;8527;49.740;6.604;2022-07-12T05:11:34;100572.53;;;15.80;91.33
16821;BME280;8527;49.740;6.604;2022-07-12T05:16:36;100572.28;;;15.52;93.41
16821;BME280;8527;49.740;6.604;2022-07-12T05:21:38;100577.47;;;15.68;92.18
16821;BME280;8527;49.740;6.604;2022-07-12T05:26:37;100589.44;;;15.19;94.39
16821;BME280;8527;49.740;6.604;2022-07-12T05:31:38;100589.03;;;15.69;93.31
16821;BME280;8527;49.740;6.604;2022-07-12T05:36:39;100602.53;;;15.91;91.67
16821;BME280;8527;49.740;6.604;2022-07-12T05:41:37;100598.25;;;16.20;90.30
16821;BME280;8527;49.740;6.604;2022-07-12T05:46:41;100591.19;;;16.34;89.03
16821;BME280;8527;49.740;6.604;2022-07-12T05:51:40;100590.94;;;16.28;89.86
16821;BME280;8527;49.740;6.604;2022-07-12T05:56:51;100588.41;;;16.57;88.98
16821;BME280;8527;49.740;6.604;2022-07-12T06:01:52;100590.00;;;16.51;89.87
16821;BME280;8527;49.740;6.604;2022-07-12T06:06:50;100586.06;;;16.69;88.64
16821;BME280;8527;49.740;6.604;2022-07-12T06:11:48;100590.09;;;16.80;88.55
16821;BME280;8527;49.740;6.604;2022-07-12T06:16:52;100600.16;;;16.93;87.81
16821;BME280;8527;49.740;6.604;2022-07-12T06:21:51;100606.53;;;17.07;87.65
16821;BME280;8527;49.740;6.604;2022-07-12T06:26:49;100612.59;;;17.15;87.27
16821;BME280;8527;49.740;6.604;2022-07-12T06:31:47;100601.84;;;17.37;86.28
16821;BME280;8527;49.740;6.604;2022-07-12T06:36:51;100612.72;;;17.51;86.29
16821;BME280;8527;49.740;6.604;2022-07-12T06:41:50;100612.00;;;17.64;85.89
16821;BME280;8527;49.740;6.604;2022-07-12T06:46:49;100603.06;;;17.85;85.31
16821;BME280;8527;49.740;6.604;2022-07-12T06:51:53;100616.59;;;18.27;83.01
16821;BME280;8527;49.740;6.604;2022-07-12T06:56:52;100610.97;;;19.33;78.09
16821;BME280;8527;49.740;6.604;2022-07-12T07:01:56;100607.03;;;19.76;77.03
16821;BME280;8527;49.740;6.604;2022-07-12T07:06:58;100607.03;;;20.03;76.04
16821;BME280;8527;49.740;6.604;2022-07-12T07:12:02;100612.84;;;20.00;75.60
16821;BME280;8527;49.740;6.604;2022-07-12T07:17:02;100620.25;;;20.18;74.83
16821;BME280;8527;49.740;6.604;2022-07-12T07:22:03;100631.56;;;20.47;73.53
16821;BME280;8527;49.740;6.604;2022-07-12T07:27:03;100619.13;;;21.37;70.00
16821;BME280;8527;49.740;6.604;2022-07-12T07:32:01;100622.75;;;22.75;65.51
16821;BME280;8527;49.740;6.604;2022-07-12T07:37:06;100616.91;;;23.09;62.00
16821;BME280;8527;49.740;6.604;2022-07-12T07:42:05;100620.31;;;23.04;60.62
16821;BME280;8527;49.740;6.604;2022-07-12T07:47:06;100628.44;;;23.46;60.92
16821;BME280;8527;49.740;6.604;2022-07-12T07:52:08;100636.97;;;24.22;59.11
16821;BME280;8527;49.740;6.604;2022-07-12T07:57:06;100637.91;;;24.80;55.94
16821;BME280;8527;49.740;6.604;2022-07-12T08:02:05;100644.00;;;24.88;55.71
16821;BME280;8527;49.740;6.604;2022-07-12T08:07:04;100621.47;;;25.84;55.41
16821;BME280;8527;49.740;6.604;2022-07-12T08:12:13;100631.72;;;24.44;55.92
16821;BME280;8527;49.740;6.604;2022-07-12T08:17:14;100625.34;;;25.72;53.87
16821;BME280;8527;49.740;6.604;2022-07-12T08:22:15;100623.63;;;26.22;51.39
16821;BME280;8527;49.740;6.604;2022-07-12T08:27:17;100630.16;;;25.18;51.97
16821;BME280;8527;49.740;6.604;2022-07-12T08:32:15;100622.63;;;25.89;52.96
16821;BME280;8527;49.740;6.604;2022-07-12T08:37:19;100623.44;;;26.73;48.63
16821;BME280;8527;49.740;6.604;2022-07-12T08:42:23;100628.03;;;26.45;47.73
16821;BME280;8527;49.740;6.604;2022-07-12T08:47:22;100609.00;;;26.73;46.02
16821;BME280;8527;49.740;6.604;2022-07-12T08:52:24;100608.94;;;26.23;45.43
16821;BME280;8527;49.740;6.604;2022-07-12T08:57:35;100605.81;;;26.81;45.27
16821;BME280;8527;49.740;6.604;2022-07-12T09:02:43;100607.41;;;27.32;41.65
16821;BME280;8527;49.740;6.604;2022-07-12T09:07:42;100610.44;;;27.73;39.78
16821;BME280;8527;49.740;6.604;2022-07-12T09:12:44;100611.72;;;28.03;39.76
16821;BME280;8527;49.740;6.604;2022-07-12T09:17:58;100602.78;;;28.13;39.75
16821;BME280;8527;49.740;6.604;2022-07-12T09:22:58;100606.91;;;29.11;38.53
16821;BME280;8527;49.740;6.604;2022-07-12T09:28:05;100598.69;;;29.73;37.79
16821;BME280;8527;49.740;6.604;2022-07-12T09:33:05;100603.88;;;28.97;41.04
16821;BME280;8527;49.740;6.604;2022-07-12T09:38:19;100595.16;;;29.57;38.17
16821;BME280;8527;49.740;6.604;2022-07-12T09:43:23;100586.16;;;29.51;39.68
16821;BME280;8527;49.740;6.604;2022-07-12T09:48:23;100591.88;;;29.34;38.46
16821;BME280;8527;49.740;6.604;2022-07-12T09:53:28;100587.94;;;30.08;38.54
16821;BME280;8527;49.740;6.604;2022-07-12T09:58:39;100582.59;;;29.19;39.34
16821;BME280;8527;49.740;6.604;2022-07-12T10:03:42;100578.47;;;29.06;39.01
16821;BME280;8527;49.740;6.604;2022-07-12T10:08:41;100576.63;;;30.80;38.14
16821;BME280;8527;49.740;6.604;2022-07-12T10:13:43;100581.81;;;30.31;36.91
16821;BME280;8527;49.740;6.604;2022-07-12T10:18:44;100596.53;;;29.59;38.47
16821;BME280;8527;49.740;6.604;2022-07-12T10:23:46;100594.25;;;30.64;37.23
16821;BME280;8527;49.740;6.604;2022-07-12T10:29:02;100588.84;;;28.84;39.09
16821;BME280;8527;49.740;6.604;2022-07-12T10:34:20;100592.44;;;29.05;38.36
16821;BME280;8527;49.740;6.604;2022-07-12T10:39:24;100583.72;;;30.31;38.55
16821;BME280;8527;49.740;6.604;2022-07-12T10:44:36;100590.78;;;28.94;37.85
16821;BME280;8527;49.740;6.604;2022-07-12T10:49:36;100601.38;;;30.59;36.31
16821;BME280;8527;49.740;6.604;2022-07-12T10:54:35;100605.53;;;29.13;37.82
16821;BME280;8527;49.740;6.604;2022-07-12T10:59:37;100602.66;;;28.41;37.64
16821;BME280;8527;49.740;6.604;2022-07-12T11:04:46;100598.97;;;29.66;36.81
16821;BME280;8527;49.740;6.604;2022-07-12T11:09:44;100600.91;;;28.19;37.95
16821;BME280;8527;49.740;6.604;2022-07-12T11:14:53;100586.13;;;28.89;36.62
16821;BME280;8527;49.740;6.604;2022-07-12T11:20:09;100583.94;;;28.86;36.39
16821;BME280;8527;49.740;6.604;2022-07-12T11:25:12;100577.66;;;28.85;35.92
16821;BME280;8527;49.740;6.604;2022-07-12T11:30:16;100572.44;;;28.94;35.38
16821;BME280;8527;49.740;6.604;2022-07-12T11:35:23;100557.72;;;29.21;32.55
16821;BME280;8527;49.740;6.604;2022-07-12T11:40:26;100557.97;;;29.35;32.21
16821;BME280;8527;49.740;6.604;2022-07-12T11:45:31;100553.84;;;29.74;30.38
16821;BME280;8527;49.740;6.604;2022-07-12T11:50:31;100541.84;;;28.76;32.64
16821;BME280;8527;49.740;6.604;2022-07-12T11:55:30;100538.44;;;29.99;31.51
16821;BME280;8527;49.740;6.604;2022-07-12T12:00:31;100535.91;;;30.13;32.53
16821;BME280;8527;49.740;6.604;2022-07-12T12:05:30;100530.59;;;29.61;32.14
16821;BME280;8527;49.740;6.604;2022-07-12T12:10:29;100520.00;;;29.18;33.57
16821;BME280;8527;49.740;6.604;2022-07-12T12:15:33;100522.22;;;29.11;32.39
16821;BME280;8527;49.740;6.604;2022-07-12T12:20:32;100511.88;;;29.99;32.06
16821;BME280;8527;49.740;6.604;2022-07-12T12:25:33;100513.72;;;29.17;33.67
16821;BME280;8527;49.740;6.604;2022-07-12T12:30:47;100503.34;;;29.04;33.45
16821;BME280;8527;49.740;6.604;2022-07-12T12:35:46;100508.28;;;28.81;33.81
16821;BME280;8527;49.740;6.604;2022-07-12T12:40:53;100506.59;;;29.32;34.92
16821;BME280;8527;49.740;6.604;2022-07-12T12:45:55;100501.97;;;29.01;34.47
16821;BME280;8527;49.740;6.604;2022-07-12T12:51:03;100489.97;;;29.99;34.03
16821;BME280;8527;49.740;6.604;2022-07-12T12:56:07;100485.94;;;29.86;31.83
16821;BME280;8527;49.740;6.604;2022-07-12T13:01:09;100491.63;;;30.06;31.80
16821;BME280;8527;49.740;6.604;2022-07-12T13:06:11;100485.88;;;28.84;32.04
16821;BME280;8527;49.740;6.604;2022-07-12T13:11:14;100484.97;;;29.51;31.12
16821;BME280;8527;49.740;6.604;2022-07-12T13:16:21;100478.47;;;29.21;31.78
16821;BME280;8527;49.740;6.604;2022-07-12T13:21:20;100479.59;;;28.84;32.58
16821;BME280;8527;49.740;6.604;2022-07-12T13:26:21;100473.31;;;28.83;32.52
16821;BME280;8527;49.740;6.604;2022-07-12T13:31:28;100476.81;;;28.78;31.67
16821;BME280;8527;49.740;6.604;2022-07-12T13:36:27;100470.00;;;29.12;31.24
16821;BME280;8527;49.740;6.604;2022-07-12T13:41:31;100483.66;;;29.23;31.55
16821;BME280;8527;49.740;6.604;2022-07-12T13:46:32;100477.59;;;29.57;30.57
16821;BME280;8527;49.740;6.604;2022-07-12T13:51:39;100478.22;;;28.86;31.05
16821;BME280;8527;49.740;6.604;2022-07-12T13:56:38;100476.00;;;29.19;30.79
16821;BME280;8527;49.740;6.604;2022-07-12T14:01:39;100477.94;;;29.14;30.53
16821;BME280;8527;49.740;6.604;2022-07-12T14:06:41;100469.31;;;29.72;31.34
16821;BME280;8527;49.740;6.604;2022-07-12T14:11:43;100460.13;;;30.08;30.39
16821;BME280;8527;49.740;6.604;2022-07-12T14:16:50;100463.22;;;29.91;28.28
16821;BME280;8527;49.740;6.604;2022-07-12T14:21:56;100449.09;;;29.63;29.18
16821;BME280;8527;49.740;6.604;2022-07-12T14:26:55;100458.91;;;29.74;29.10
16821;BME280;8527;49.740;6.604;2022-07-12T14:32:03;100452.09;;;29.72;28.49
16821;BME280;8527;49.740;6.604;2022-07-12T14:37:01;100449.06;;;29.79;29.72
16821;BME280;8527;49.740;6.604;2022-07-12T14:42:06;100429.91;;;29.73;28.36
16821;BME280;8527;49.740;6.604;2022-07-12T14:47:10;100434.91;;;29.66;28.34
16821;BME280;8527;49.740;6.604;2022-07-12T14:52:18;100429.38;;;29.71;28.82
16821;BME280;8527;49.740;6.604;2022-07-12T14:57:17;100423.81;;;29.92;28.13
16821;BME280;8527;49.740;6.604;2022-07-12T15:02:23;100429.75;;;29.49;28.43
16821;BME280;8527;49.740;6.604;2022-07-12T15:07:24;100416.66;;;29.46;28.46
16821;BME280;8527;49.740;6.604;2022-07-12T15:12:25;100416.09;;;29.49;28.54
16821;BME280;8527;49.740;6.604;2022-07-12T15:17:29;100416.91;;;29.50;28.59
16821;BME280;8527;49.740;6.604;2022-07-12T15:22:28;100407.47;;;29.76;28.39
16821;BME280;8527;49.740;6.604;2022-07-12T15:27:37;100416.06;;;29.59;28.52
16821;BME280;8527;49.740;6.604;2022-07-12T15:32:38;100399.84;;;29.73;28.43
16821;BME280;8527;49.740;6.604;2022-07-12T15:37:42;100393.22;;;29.85;27.72
16821;BME280;8527;49.740;6.604;2022-07-12T15:42:52;100388.72;;;29.54;27.72
16821;BME280;8527;49.740;6.604;2022-07-12T15:47:56;100382.38;;;29.69;28.90
16821;BME280;8527;49.740;6.604;2022-07-12T15:52:55;100384.09;;;29.55;28.63
16821;BME280;8527;49.740;6.604;2022-07-12T15:58:06;100378.94;;;29.38;28.83
16821;BME280;8527;49.740;6.604;2022-07-12T16:03:07;100373.94;;;29.55;28.80
16821;BME280;8527;49.740;6.604;2022-07-12T16:08:06;100371.22;;;29.55;28.73
16821;BME280;8527;49.740;6.604;2022-07-12T16:13:05;100369.78;;;29.68;29.43
16821;BME280;8527;49.740;6.604;2022-07-12T16:18:09;100369.16;;;29.82;30.53
16821;BME280;8527;49.740;6.604;2022-07-12T16:23:08;100367.81;;;29.79;29.85
16821;BME280;8527;49.740;6.604;2022-07-12T16:28:09;100370.53;;;29.84;28.84
16821;BME280;8527;49.740;6.604;2022-07-12T16:33:16;100361.94;;;29.96;30.40
16821;BME280;8527;49.740;6.604;2022-07-12T16:38:16;100364.38;;;30.03;31.67
16821;BME280;8527;49.740;6.604;2022-07-12T16:43:17;100363.72;;;30.22;33.29
16821;BME280;8527;49.740;6.604;2022-07-12T16:48:18;100359.88;;;30.23;32.01
16821;BME280;8527;49.740;6.604;2022-07-12T16:53:22;100368.88;;;29.83;28.50
16821;BME280;8527;49.740;6.604;2022-07-12T16:58:21;100357.94;;;29.83;30.89
16821;BME280;8527;49.740;6.604;2022-07-12T17:03:24;100364.63;;;29.61;29.29
16821;BME280;8527;49.740;6.604;2022-07-12T17:08:22;100361.41;;;29.49;30.34
16821;BME280;8527;49.740;6.604;2022-07-12T17:13:21;100369.34;;;29.45;29.49
16821;BME280;8527;49.740;6.604;2022-07-12T17:18:35;100356.97;;;29.64;32.08
16821;BME280;8527;49.740;6.604;2022-07-12T17:23:33;100362.47;;;29.58;29.39
16821;BME280;8527;49.740;6.604;2022-07-12T17:28:37;100370.38;;;29.65;30.45
16821;BME280;8527;49.740;6.604;2022-07-12T17:33:40;100361.06;;;29.61;31.38
16821;BME280;8527;49.740;6.604;2022-07-12T17:38:42;100357.50;;;29.66;33.48
16821;BME280;8527;49.740;6.604;2022-07-12T17:43:42;100361.09;;;29.56;34.92
16821;BME280;8527;49.740;6.604;2022-07-12T17:48:45;100358.72;;;29.33;36.24
16821;BME280;8527;49.740;6.604;2022-07-12T17:53:47;100368.06;;;29.17;36.13
16821;BME280;8527;49.740;6.604;2022-07-12T17:58:49;100363.47;;;28.97;35.74
16821;BME280;8527;49.740;6.604;2022-07-12T18:03:51;100358.31;;;28.79;37.08
16821;BME280;8527;49.740;6.604;2022-07-12T18:08:52;100358.88;;;28.71;37.73
16821;BME280;8527;49.740;6.604;2022-07-12T18:13:52;100358.06;;;28.50;39.06
16821;BME280;8527;49.740;6.604;2022-07-12T18:19:09;100358.34;;;28.38;39.49
16821;BME280;8527;49.740;6.604;2022-07-12T18:24:08;100359.38;;;28.06;38.70
16821;BME280;8527;49.740;6.604;2022-07-12T18:29:06;100355.88;;;28.16;38.30
16821;BME280;8527;49.740;6.604;2022-07-12T18:34:07;100351.72;;;27.92;38.90
16821;BME280;8527;49.740;6.604;2022-07-12T18:39:11;100356.88;;;27.73;38.65
16821;BME280;8527;49.740;6.604;2022-07-12T18:44:12;100356.84;;;27.58;39.42
16821;BME280;8527;49.740;6.604;2022-07-12T18:49:14;100370.38;;;27.37;38.87
16821;BME280;8527;49.740;6.604;2022-07-12T18:54:13;100359.44;;;27.32;39.53
16821;BME280;8527;49.740;6.604;2022-07-12T18:59:14;100359.94;;;27.18;39.28
16821;BME280;8527;49.740;6.604;2022-07-12T19:04:21;100367.78;;;27.09;39.13
16821;BME280;8527;49.740;6.604;2022-07-12T19:09:25;100362.28;;;26.94;39.82
16821;BME280;8527;49.740;6.604;2022-07-12T19:14:24;100367.72;;;26.94;39.61
16821;BME280;8527;49.740;6.604;2022-07-12T19:19:26;100369.84;;;26.92;39.53
16821;BME280;8527;49.740;6.604;2022-07-12T19:24:25;100374.41;;;26.81;39.55
16821;BME280;8527;49.740;6.604;2022-07-12T19:29:26;100373.69;;;26.58;40.58
16821;BME280;8527;49.740;6.604;2022-07-12T19:34:30;100383.13;;;26.45;40.47
16821;BME280;8527;49.740;6.604;2022-07-12T19:39:32;100383.06;;;26.40;39.87
16821;BME280;8527;49.740;6.604;2022-07-12T19:44:30;100386.91;;;25.89;40.77
16821;BME280;8527;49.740;6.604;2022-07-12T19:49:31;100393.69;;;25.87;40.35
16821;BME280;8527;49.740;6.604;2022-07-12T19:54:33;100395.53;;;25.81;41.17
16821;BME280;8527;49.740;6.604;2022-07-12T19:59:34;100403.03;;;25.96;40.41
16821;BME280;8527;49.740;6.604;2022-07-12T20:04:41;100400.13;;;25.80;41.05
16821;BME280;8527;49.740;6.604;2022-07-12T20:09:40;100413.75;;;25.58;41.32
16821;BME280;8527;49.740;6.604;2022-07-12T20:14:39;100409.91;;;25.37;41.16
16821;BME280;8527;49.740;6.604;2022-07-12T20:19:46;100422.84;;;25.29;41.01
16821;BME280;8527;49.740;6.604;2022-07-12T20:24:47;100417.72;;;25.11;41.43
16821;BME280;8527;49.740;6.604;2022-07-12T20:29:45;100420.78;;;24.80;42.49
16821;BME280;8527;49.740;6.604;2022-07-12T20:34:46;100416.72;;;24.66;43.06
16821;BME280;8527;49.740;6.604;2022-07-12T20:39:46;100424.69;;;24.38;42.99
16821;BME280;8527;49.740;6.604;2022-07-12T20:44:48;100424.97;;;24.25;43.24
16821;BME280;8527;49.740;6.604;2022-07-12T20:50:00;100418.88;;;24.17;42.65
16821;BME280;8527;49.740;6.604;2022-07-12T20:55:01;100417.69;;;23.84;43.46
16821;BME280;8527;49.740;6.604;2022-07-12T20:59:59;100427.03;;;23.77;43.77
16821;BME280;8527;49.740;6.604;2022-07-12T21:05:00;100428.34;;;23.62;44.16
16821;BME280;8527;49.740;6.604;2022-07-12T21:09:59;100428.16;;;23.52;44.17
16821;BME280;8527;49.740;6.604;2022-07-12T21:14:58;100417.44;;;23.33;45.30
16821;BME280;8527;49.740;6.604;2022-07-12T21:19:57;100426.13;;;23.11;45.70
16821;BME280;8527;49.740;6.604;2022-07-12T21:24:58;100429.31;;;23.20;46.18
16821;BME280;8527;49.740;6.604;2022-07-12T21:29:56;100424.84;;;23.14;46.55
16821;BME280;8527;49.740;6.604;2022-07-12T21:34:55;100420.03;;;23.04;45.82
16821;BME280;8527;49.740;6.604;2022-07-12T21:39:56;100427.91;;;22.94;46.93
16821;BME280;8527;49.740;6.604;2022-07-12T21:44:57;100423.88;;;22.84;47.68
16821;BME280;8527;49.740;6.604;2022-07-12T21:49:56;100423.50;;;22.69;48.05
16821;BME280;8527;49.740;6.604;2022-07-12T21:54:54;100424.13;;;22.83;48.56
16821;BME280;8527;49.740;6.604;2022-07-12T21:59:53;100427.50;;;22.66;48.54
16821;BME280;8527;49.740;6.604;2022-07-12T22:04:55;100426.09;;;22.64;49.07
16821;BME280;8527;49.740;6.604;2022-07-12T22:09:57;100427.19;;;22.44;49.27
16821;BME280;8527;49.740;6.604;2022-07-12T22:15:01;100423.50;;;22.26;50.63
16821;BME280;8527;49.740;6.604;2022-07-12T22:20:04;100425.47;;;22.19;49.75
16821;BME280;8527;49.740;6.604;2022-07-12T22:25:04;100422.03;;;22.12;51.56
16821;BME280;8527;49.740;6.604;2022-07-12T22:30:12;100433.88;;;22.11;50.96
16821;BME280;8527;49.740;6.604;2022-07-12T22:35:14;100437.03;;;22.08;50.94
16821;BME280;8527;49.740;6.604;2022-07-12T22:40:17;100435.50;;;22.00;51.71
16821;BME280;8527;49.740;6.604;2022-07-12T22:45:25;100434.22;;;22.02;52.75
16821;BME280;8527;49.740;6.604;2022-07-12T22:50:26;100434.31;;;21.96;51.86
16821;BME280;8527;49.740;6.604;2022-07-12T22:55:37;100428.75;;;21.90;52.87
16821;BME280;8527;49.740;6.604;2022-07-12T23:00:38;100436.94;;;21.84;52.84
16821;BME280;8527;49.740;6.604;2022-07-12T23:05:39;100431.16;;;21.80;53.22
16821;BME280;8527;49.740;6.604;2022-07-12T23:10:40;100432.97;;;21.68;53.13
16821;BME280;8527;49.740;6.604;2022-07-12T23:15:45;100434.63;;;21.69;53.27
16821;BME280;8527;49.740;6.604;2022-07-12T23:20:47;100427.09;;;21.52;53.59
16821;BME280;8527;49.740;6.604;2022-07-12T23:25:49;100427.47;;;21.56;53.79
16821;BME280;8527;49.740;6.604;2022-07-12T23:30:50;100423.56;;;21.52;54.35
16821;BME280;8527;49.740;6.604;2022-07-12T23:35:52;100427.53;;;21.49;54.04
16821;BME280;8527;49.740;6.604;2022-07-12T23:40:53;100430.31;;;21.42;55.18
16821;BME280;8527;49.740;6.604;2022-07-12T23:45:59;100425.06;;;21.47;55.84
16821;BME280;8527;49.740;6.604;2022-07-12T23:51:07;100425.19;;;21.34;56.93
16821;BME280;8527;49.740;6.604;2022-07-12T23:56:10;100421.75;;;21.27;56.19
